Time;durP1;ratioP1;P1;durP2;ratioP2;P2;SDS_P1;SDS_P2;PMS_P1;PMS_P2;Temp;Humidity;BMP_temperature;BMP_pressure;BME280_temperature;BME280_humidity;BME280_pressure;Samples;Min_cycle;Max_cycle;Signal;HPM_P1;HPM_P2
2022/05/09 00:02:15;;;;;;;11.30;6.28;;;;;;;;;;5070938;28;20415;-68
2022/05/09 00:04:40;;;;;;;8.48;5.53;;;;;;;;;;5082751;28;20474;-69
2022/05/09 00:07:05;;;;;;;24.27;12.95;;;;;;;;;;5082271;28;20059;-67
2022/05/09 00:09:32;;;;;;;24.80;11.80;;;;;;;;;;5077708;28;20028;-69
2022/05/09 00:11:57;;;;;;;17.30;9.77;;;;;;;;;;5074245;28;20176;-68
2022/05/09 00:14:23;;;;;;;12.57;7.25;;;;;;;;;;5078497;28;20525;-71
2022/05/09 00:16:50;;;;;;;14.10;7.65;;;;;;;;;;5054643;28;20062;-69
2022/05/09 00:19:17;;;;;;;12.40;8.07;;;;;;;;;;5081747;28;20443;-68
2022/05/09 00:21:43;;;;;;;15.68;10.38;;;;;;;;;;5080836;28;20089;-67
2022/05/09 00:24:12;;;;;;;12.13;7.32;;;;;;;;;;5082175;28;20096;-68
2022/05/09 00:26:38;;;;;;;14.52;7.18;;;;;;;;;;5071166;28;20020;-69
2022/05/09 00:29:04;;;;;;;7.22;5.00;;;;;;;;;;5081699;28;20415;-66
2022/05/09 00:31:30;;;;;;;10.50;5.57;;;;;;;;;;5079822;28;20502;-71
2022/05/09 00:33:55;;;;;;;9.60;5.85;;;;;;;;;;5072932;28;20625;-70
2022/05/09 00:36:21;;;;;;;11.55;5.75;;;;;;;;;;5082062;28;20450;-67
2022/05/09 00:38:49;;;;;;;8.68;5.68;;;;;;;;;;5081193;28;20076;-67
2022/05/09 00:44:00;;;;;;;5.85;4.13;;;;;;;;;;5077404;28;21118;-70
2022/05/09 00:46:28;;;;;;;5.97;4.05;;;;;;;;;;5074085;28;20035;-65
2022/05/09 00:48:53;;;;;;;10.30;5.30;;;;;;;;;;5080932;28;20027;-66
2022/05/09 00:51:23;;;;;;;10.73;6.10;;;;;;;;;;5081973;28;20016;-68
2022/05/09 00:53:50;;;;;;;13.05;6.38;;;;;;;;;;5080649;28;20092;-68
2022/05/09 00:56:21;;;;;;;11.73;6.43;;;;;;;;;;5070126;28;20093;-67
2022/05/09 00:58:50;;;;;;;10.40;5.85;;;;;;;;;;5082323;28;20466;-70
2022/05/09 01:01:16;;;;;;;7.45;5.28;;;;;;;;;;5081129;28;20088;-68
2022/05/09 01:03:44;;;;;;;6.40;4.47;;;;;;;;;;5051930;28;20382;-66
2022/05/09 01:06:10;;;;;;;8.25;4.72;;;;;;;;;;5080740;28;20056;-71
2022/05/09 01:08:36;;;;;;;11.32;4.30;;;;;;;;;;5081022;28;20083;-71
2022/05/09 01:11:06;;;;;;;7.65;4.85;;;;;;;;;;5081406;28;20024;-68
2022/05/09 01:13:34;;;;;;;17.85;8.95;;;;;;;;;;5081311;28;20020;-70
2022/05/09 01:16:02;;;;;;;59.28;25.15;;;;;;;;;;5083512;28;20340;-67
2022/05/09 01:18:27;;;;;;;51.80;21.55;;;;;;;;;;5082655;28;20061;-69
2022/05/09 01:20:53;;;;;;;37.60;16.27;;;;;;;;;;5081197;28;20032;-67
2022/05/09 01:23:18;;;;;;;39.97;16.50;;;;;;;;;;5081582;28;20111;-68
2022/05/09 01:25:43;;;;;;;37.95;16.15;;;;;;;;;;5081296;28;20036;-67
2022/05/09 01:28:10;;;;;;;21.67;10.25;;;;;;;;;;5074253;28;20055;-70
2022/05/09 01:30:57;;;;;;;17.63;7.47;;;;;;;;;;5076352;28;20111;-68
2022/05/09 01:33:41;;;;;;;15.30;7.63;;;;;;;;;;5081157;28;20020;-67
2022/05/09 01:36:14;;;;;;;17.17;9.35;;;;;;;;;;5080407;28;20345;-67
2022/05/09 01:38:45;;;;;;;17.60;8.80;;;;;;;;;;5080697;28;20031;-66
2022/05/09 01:41:10;;;;;;;13.20;5.80;;;;;;;;;;5079584;28;20031;-68
2022/05/09 01:43:37;;;;;;;10.40;5.88;;;;;;;;;;5080960;28;20027;-71
2022/05/09 01:46:07;;;;;;;14.02;7.93;;;;;;;;;;5079270;28;20027;-67
2022/05/09 01:51:17;;;;;;;14.00;7.93;;;;;;;;;;5080752;28;20092;-69
2022/05/09 01:53:49;;;;;;;14.18;8.02;;;;;;;;;;5079785;28;20740;-66
2022/05/09 01:56:14;;;;;;;12.48;7.47;;;;;;;;;;5080702;28;20042;-67
2022/05/09 01:58:40;;;;;;;11.88;6.00;;;;;;;;;;5071247;28;20101;-70
2022/05/09 02:01:16;;;;;;;10.30;4.85;;;;;;;;;;5073879;27;21380;-69
2022/05/09 02:03:42;;;;;;;7.07;4.00;;;;;;;;;;5073853;28;20630;-69
2022/05/09 02:06:09;;;;;;;6.68;4.47;;;;;;;;;;5076686;28;20510;-68
2022/05/09 02:08:36;;;;;;;6.82;4.65;;;;;;;;;;5070732;28;20321;-66
2022/05/09 02:11:02;;;;;;;6.43;4.20;;;;;;;;;;5068064;28;20036;-67
2022/05/09 02:13:27;;;;;;;6.22;3.63;;;;;;;;;;5068618;28;20031;-67
2022/05/09 02:15:53;;;;;;;5.28;3.95;;;;;;;;;;5064503;28;20051;-71
2022/05/09 02:18:18;;;;;;;4.75;3.35;;;;;;;;;;5071926;28;20123;-66
2022/05/09 02:20:43;;;;;;;7.07;4.28;;;;;;;;;;5071533;28;20131;-68
2022/05/09 02:23:08;;;;;;;12.93;5.40;;;;;;;;;;5066589;28;20028;-69
2022/05/09 02:25:36;;;;;;;7.72;3.60;;;;;;;;;;5063084;28;20047;-71
2022/05/09 02:28:02;;;;;;;4.78;3.08;;;;;;;;;;5072598;28;20029;-66
2022/05/09 02:30:29;;;;;;;9.32;3.17;;;;;;;;;;5074571;28;20028;-66
2022/05/09 02:32:55;;;;;;;5.20;3.10;;;;;;;;;;5073783;28;20442;-68
2022/05/09 02:35:21;;;;;;;7.70;3.40;;;;;;;;;;5075128;28;20024;-68
2022/05/09 02:37:47;;;;;;;6.53;3.35;;;;;;;;;;5067470;28;20031;-67
2022/05/09 02:40:13;;;;;;;4.82;3.75;;;;;;;;;;5064570;28;20028;-72
2022/05/09 02:42:38;;;;;;;6.15;3.42;;;;;;;;;;5062317;28;20090;-68
2022/05/09 02:45:03;;;;;;;5.43;3.80;;;;;;;;;;5068529;28;20047;-67
2022/05/09 02:47:29;;;;;;;6.93;3.75;;;;;;;;;;5073652;28;20039;-69
2022/05/09 02:49:54;;;;;;;6.60;3.85;;;;;;;;;;5073381;28;20407;-66
2022/05/09 02:52:19;;;;;;;7.10;3.55;;;;;;;;;;5074704;28;20409;-67
2022/05/09 02:54:45;;;;;;;11.10;5.45;;;;;;;;;;5071697;28;20031;-67
2022/05/09 02:57:11;;;;;;;19.13;8.95;;;;;;;;;;5067487;28;20017;-68
2022/05/09 02:59:36;;;;;;;23.95;11.35;;;;;;;;;;5036049;28;20053;-67
2022/05/09 03:02:02;;;;;;;23.33;10.23;;;;;;;;;;4991202;28;20940;-71
2022/05/09 03:04:40;;;;;;;15.27;9.00;;;;;;;;;;4990414;28;20356;-67
2022/05/09 03:07:09;;;;;;;15.57;8.80;;;;;;;;;;4990726;28;20030;-67
2022/05/09 03:09:35;;;;;;;10.90;6.57;;;;;;;;;;4989157;28;20116;-69
2022/05/09 03:12:00;;;;;;;8.52;5.38;;;;;;;;;;4968342;28;20122;-66
2022/05/09 03:14:26;;;;;;;9.30;5.32;;;;;;;;;;4970374;28;20038;-67
2022/05/09 03:16:51;;;;;;;8.48;4.75;;;;;;;;;;4981002;28;20153;-67
2022/05/09 03:19:16;;;;;;;5.53;3.53;;;;;;;;;;4976871;28;20034;-67
2022/05/09 03:21:42;;;;;;;12.10;3.72;;;;;;;;;;4978098;28;20374;-69
2022/05/09 03:24:07;;;;;;;4.38;3.60;;;;;;;;;;4977688;28;20319;-68
2022/05/09 03:26:33;;;;;;;7.95;3.10;;;;;;;;;;4976017;28;20041;-70
2022/05/09 03:28:58;;;;;;;5.85;3.63;;;;;;;;;;4968629;28;20041;-69
2022/05/09 03:31:24;;;;;;;4.85;3.35;;;;;;;;;;4976745;28;20030;-69
2022/05/09 03:33:49;;;;;;;6.90;3.28;;;;;;;;;;4967188;28;20040;-66
2022/05/09 03:36:15;;;;;;;5.22;4.32;;;;;;;;;;4968052;28;20053;-66
2022/05/09 03:38:40;;;;;;;5.90;4.10;;;;;;;;;;4973091;28;20354;-70
2022/05/09 03:41:05;;;;;;;11.25;3.72;;;;;;;;;;4976048;28;20037;-67
2022/05/09 03:43:31;;;;;;;5.22;3.35;;;;;;;;;;4977535;28;20027;-68
2022/05/09 03:45:57;;;;;;;5.82;3.60;;;;;;;;;;4977256;28;20025;-72
2022/05/09 03:48:22;;;;;;;6.00;4.30;;;;;;;;;;4968857;28;20058;-69
2022/05/09 03:50:48;;;;;;;6.22;4.38;;;;;;;;;;4975507;28;20399;-70
2022/05/09 03:53:13;;;;;;;6.15;3.80;;;;;;;;;;4977352;28;20195;-67
2022/05/09 03:55:38;;;;;;;6.25;4.05;;;;;;;;;;4977083;28;20035;-67
2022/05/09 03:58:04;;;;;;;10.80;5.30;;;;;;;;;;4975272;28;20041;-68
2022/05/09 04:00:32;;;;;;;8.50;4.57;;;;;;;;;;4971662;28;20059;-67
2022/05/09 04:02:57;;;;;;;7.13;4.03;;;;;;;;;;4975673;28;20030;-68
2022/05/09 04:05:23;;;;;;;5.97;5.05;;;;;;;;;;4975762;28;20037;-72
2022/05/09 04:07:50;;;;;;;7.45;4.47;;;;;;;;;;4965895;28;20055;-68
2022/05/09 04:10:17;;;;;;;7.25;4.50;;;;;;;;;;4975840;28;20092;-68
2022/05/09 04:12:42;;;;;;;12.98;6.38;;;;;;;;;;4968352;28;20063;-67
2022/05/09 04:17:52;;;;;;;16.10;8.85;;;;;;;;;;4976829;28;20042;-67
2022/05/09 04:20:18;;;;;;;12.73;6.70;;;;;;;;;;4976056;28;20030;-66
2022/05/09 04:22:43;;;;;;;13.63;8.23;;;;;;;;;;4977242;28;20029;-67
2022/05/09 04:25:09;;;;;;;18.17;10.18;;;;;;;;;;4974889;28;20398;-71
2022/05/09 04:27:35;;;;;;;19.30;9.93;;;;;;;;;;4971790;28;20033;-67
2022/05/09 04:30:01;;;;;;;15.57;8.52;;;;;;;;;;4965520;28;20396;-67
2022/05/09 04:32:26;;;;;;;11.43;5.75;;;;;;;;;;4967735;28;20034;-65
2022/05/09 04:34:52;;;;;;;22.35;10.90;;;;;;;;;;4974979;28;20022;-65
2022/05/09 04:37:17;;;;;;;28.95;13.95;;;;;;;;;;4978311;28;20117;-65
2022/05/09 04:39:42;;;;;;;23.73;12.60;;;;;;;;;;4970586;28;20039;-66
2022/05/09 04:42:09;;;;;;;15.88;9.00;;;;;;;;;;4969056;28;20038;-65
2022/05/09 04:44:35;;;;;;;13.07;6.80;;;;;;;;;;4965800;28;20034;-66
2022/05/09 04:47:00;;;;;;;12.25;5.68;;;;;;;;;;4974871;28;20049;-71
2022/05/09 04:49:26;;;;;;;12.10;5.68;;;;;;;;;;4978305;28;20437;-67
2022/05/09 04:51:51;;;;;;;7.63;4.90;;;;;;;;;;4973268;28;20105;-66
2022/05/09 04:54:16;;;;;;;9.95;5.03;;;;;;;;;;4978084;28;20481;-64
2022/05/09 04:56:42;;;;;;;7.65;4.88;;;;;;;;;;4977808;28;20022;-65
2022/05/09 04:59:08;;;;;;;8.02;5.22;;;;;;;;;;4973195;28;20054;-65
2022/05/09 05:01:33;;;;;;;13.63;8.88;;;;;;;;;;4966374;28;20018;-67
2022/05/09 05:03:59;;;;;;;34.28;18.77;;;;;;;;;;4969987;28;20060;-66
2022/05/09 05:06:25;;;;;;;60.00;29.45;;;;;;;;;;4976134;28;20030;-69
2022/05/09 05:08:50;;;;;;;32.40;17.90;;;;;;;;;;4976039;28;20084;-65
2022/05/09 05:11:15;;;;;;;29.58;16.35;;;;;;;;;;4978476;28;20103;-66
2022/05/09 05:13:41;;;;;;;24.40;13.43;;;;;;;;;;4976660;28;20040;-68
2022/05/09 05:16:06;;;;;;;26.13;16.02;;;;;;;;;;4976312;28;20031;-66
2022/05/09 05:18:34;;;;;;;26.23;16.23;;;;;;;;;;4970614;28;20105;-65
2022/05/09 05:21:06;;;;;;;15.27;10.50;;;;;;;;;;4963789;28;20036;-67
2022/05/09 05:23:31;;;;;;;13.90;8.65;;;;;;;;;;4975725;28;20072;-66
2022/05/09 05:26:00;;;;;;;16.23;9.43;;;;;;;;;;4965234;28;20054;-66
2022/05/09 05:28:26;;;;;;;10.43;7.57;;;;;;;;;;4965993;28;20095;-67
2022/05/09 05:30:53;;;;;;;14.63;8.18;;;;;;;;;;4974994;28;20032;-67
2022/05/09 05:33:18;;;;;;;16.15;8.85;;;;;;;;;;4966270;28;20038;-72
2022/05/09 05:35:43;;;;;;;17.92;7.95;;;;;;;;;;4963413;28;20022;-67
2022/05/09 05:38:09;;;;;;;13.60;7.88;;;;;;;;;;4964004;28;20041;-67
2022/05/09 05:40:34;;;;;;;14.63;7.88;;;;;;;;;;4964497;28;20030;-68
2022/05/09 05:42:59;;;;;;;13.15;7.57;;;;;;;;;;4963884;28;20022;-71
2022/05/09 05:45:25;;;;;;;17.20;7.60;;;;;;;;;;4963716;28;20061;-70
2022/05/09 05:47:51;;;;;;;13.20;6.95;;;;;;;;;;4972432;28;20069;-67
2022/05/09 05:50:18;;;;;;;18.92;8.38;;;;;;;;;;4970479;28;20041;-66
2022/05/09 05:52:43;;;;;;;15.07;8.27;;;;;;;;;;4961584;28;20454;-66
2022/05/09 05:55:09;;;;;;;11.93;7.78;;;;;;;;;;4962649;28;20068;-69
2022/05/09 05:57:37;;;;;;;28.08;8.43;;;;;;;;;;4963027;28;20358;-71
2022/05/09 06:00:03;;;;;;;15.20;8.07;;;;;;;;;;4963171;28;20050;-66
2022/05/09 06:02:30;;;;;;;15.73;8.02;;;;;;;;;;4962948;28;20034;-68
2022/05/09 06:04:55;;;;;;;15.52;7.72;;;;;;;;;;4964047;28;20026;-71
2022/05/09 06:07:22;;;;;;;21.83;9.40;;;;;;;;;;4970850;28;20053;-68
2022/05/09 06:09:49;;;;;;;18.73;7.72;;;;;;;;;;4975477;28;20034;-66
2022/05/09 06:12:15;;;;;;;15.88;7.65;;;;;;;;;;4975835;28;20113;-66
2022/05/09 06:14:41;;;;;;;17.40;7.90;;;;;;;;;;4970288;28;20019;-71
2022/05/09 06:17:06;;;;;;;15.60;8.60;;;;;;;;;;4970384;28;20111;-70
2022/05/09 06:19:32;;;;;;;23.83;12.20;;;;;;;;;;4975501;28;20035;-68
2022/05/09 06:21:58;;;;;;;26.92;14.13;;;;;;;;;;4974585;28;20018;-66
2022/05/09 06:24:23;;;;;;;17.15;10.77;;;;;;;;;;4975004;28;20034;-69
2022/05/09 06:26:50;;;;;;;22.13;10.48;;;;;;;;;;4976299;28;20026;-69
2022/05/09 06:29:15;;;;;;;21.10;10.05;;;;;;;;;;4973409;28;20440;-68
2022/05/09 06:31:41;;;;;;;19.40;11.35;;;;;;;;;;4974697;28;20026;-71
2022/05/09 06:34:11;;;;;;;16.83;7.75;;;;;;;;;;4960837;28;20117;-72
2022/05/09 06:36:37;;;;;;;15.38;7.55;;;;;;;;;;4962232;28;20141;-70
2022/05/09 06:39:03;;;;;;;12.63;7.10;;;;;;;;;;4965752;28;20520;-71
2022/05/09 06:41:29;;;;;;;15.43;8.30;;;;;;;;;;4962677;28;20030;-72
2022/05/09 06:43:54;;;;;;;18.73;8.77;;;;;;;;;;4962662;28;21107;-73
2022/05/09 06:46:19;;;;;;;15.90;8.25;;;;;;;;;;4960881;28;20227;-73
2022/05/09 06:48:45;;;;;;;16.08;8.90;;;;;;;;;;4965321;28;20043;-73
2022/05/09 06:51:10;;;;;;;16.17;8.88;;;;;;;;;;4966226;28;21153;-69
2022/05/09 06:53:36;;;;;;;12.82;7.40;;;;;;;;;;4963581;28;20034;-69
2022/05/09 06:56:01;;;;;;;14.52;5.90;;;;;;;;;;4968158;28;20094;-65
2022/05/09 06:58:27;;;;;;;8.23;5.03;;;;;;;;;;4964876;28;20038;-68
2022/05/09 07:00:53;;;;;;;6.88;4.47;;;;;;;;;;4976129;28;20414;-67
2022/05/09 07:03:18;;;;;;;8.30;4.30;;;;;;;;;;4974651;28;20053;-70
2022/05/09 07:05:45;;;;;;;7.38;4.95;;;;;;;;;;4976218;28;20038;-67
2022/05/09 07:08:10;;;;;;;7.13;4.55;;;;;;;;;;4968416;28;20597;-69
2022/05/09 07:10:36;;;;;;;11.23;4.85;;;;;;;;;;4965967;28;20489;-66
2022/05/09 07:13:04;;;;;;;6.10;3.95;;;;;;;;;;4971587;28;20026;-67
2022/05/09 07:15:30;;;;;;;9.98;4.55;;;;;;;;;;4967404;28;20026;-71
2022/05/09 07:17:56;;;;;;;7.85;4.47;;;;;;;;;;4973844;28;20453;-68
2022/05/09 07:20:25;;;;;;;8.48;5.13;;;;;;;;;;4977163;28;20125;-67
2022/05/09 07:22:51;;;;;;;9.73;4.93;;;;;;;;;;4977739;28;20437;-67
2022/05/09 07:25:17;;;;;;;11.80;4.82;;;;;;;;;;4976373;28;20023;-67
2022/05/09 07:27:42;;;;;;;7.18;4.53;;;;;;;;;;4965195;28;20026;-68
2022/05/09 07:30:18;;;;;;;14.02;4.90;;;;;;;;;;4964504;28;20445;-67
2022/05/09 07:32:43;;;;;;;5.57;4.07;;;;;;;;;;4965687;28;20038;-66
2022/05/09 07:35:10;;;;;;;8.52;4.30;;;;;;;;;;4965056;28;20054;-66
2022/05/09 07:37:36;;;;;;;6.40;4.35;;;;;;;;;;4967365;28;20061;-66
2022/05/09 07:40:02;;;;;;;10.05;5.07;;;;;;;;;;4970661;28;20182;-70
2022/05/09 07:42:28;;;;;;;10.35;5.05;;;;;;;;;;4962806;28;20030;-69
2022/05/09 07:44:56;;;;;;;11.68;4.97;;;;;;;;;;4966759;28;20450;-67
2022/05/09 07:47:21;;;;;;;8.88;4.78;;;;;;;;;;4969356;28;20334;-66
2022/05/09 07:49:46;;;;;;;8.38;4.15;;;;;;;;;;4970446;28;20036;-67
2022/05/09 07:52:12;;;;;;;9.45;4.93;;;;;;;;;;4976512;28;20092;-67
2022/05/09 07:54:37;;;;;;;8.98;4.50;;;;;;;;;;4975399;28;20034;-69
2022/05/09 07:57:02;;;;;;;6.75;4.20;;;;;;;;;;4974009;28;20037;-66
2022/05/09 07:59:29;;;;;;;5.72;4.55;;;;;;;;;;4974930;28;20535;-68
2022/05/09 08:01:54;;;;;;;7.47;4.68;;;;;;;;;;4969131;28;20294;-66
2022/05/09 08:04:20;;;;;;;9.70;4.65;;;;;;;;;;4965283;28;20413;-64
2022/05/09 08:06:45;;;;;;;7.45;4.15;;;;;;;;;;4965462;28;20034;-69
2022/05/09 08:09:11;;;;;;;10.85;4.20;;;;;;;;;;4964691;28;20054;-66
2022/05/09 08:11:36;;;;;;;9.90;4.88;;;;;;;;;;4965844;28;20091;-68
2022/05/09 08:14:01;;;;;;;15.45;8.73;;;;;;;;;;4968895;28;20092;-70
2022/05/09 08:16:29;;;;;;;7.40;4.60;;;;;;;;;;4976481;28;20034;-68
2022/05/09 08:18:54;;;;;;;6.40;3.53;;;;;;;;;;4976656;28;20050;-70
2022/05/09 08:21:20;;;;;;;8.30;4.45;;;;;;;;;;4978671;28;20084;-67
2022/05/09 08:23:46;;;;;;;7.28;4.90;;;;;;;;;;4977551;28;20026;-68
2022/05/09 08:26:12;;;;;;;11.77;4.88;;;;;;;;;;4973960;28;20018;-71
2022/05/09 08:28:37;;;;;;;6.07;3.95;;;;;;;;;;4976814;28;20031;-70
2022/05/09 08:31:03;;;;;;;6.50;2.92;;;;;;;;;;4978270;28;20038;-73
2022/05/09 08:33:29;;;;;;;4.07;2.60;;;;;;;;;;4972089;28;20030;-69
2022/05/09 08:35:55;;;;;;;4.20;2.88;;;;;;;;;;4964807;28;20420;-68
2022/05/09 08:38:20;;;;;;;4.82;2.50;;;;;;;;;;4972683;28;20030;-67
2022/05/09 08:41:05;;;;;;;4.57;2.60;;;;;;;;;;4977769;28;20031;-68
2022/05/09 08:43:31;;;;;;;2.80;2.30;;;;;;;;;;4976710;28;20040;-69
2022/05/09 08:46:14;;;;;;;5.15;2.20;;;;;;;;;;4973231;28;20034;-71
2022/05/09 08:48:39;;;;;;;6.45;3.00;;;;;;;;;;4967910;28;20018;-69
2022/05/09 08:51:14;;;;;;;7.45;3.50;;;;;;;;;;4974842;28;20099;-70
2022/05/09 08:53:41;;;;;;;6.88;3.05;;;;;;;;;;4969018;28;20053;-68
2022/05/09 08:56:11;;;;;;;5.57;2.58;;;;;;;;;;4963906;28;20037;-66
2022/05/09 08:58:49;;;;;;;3.67;2.22;;;;;;;;;;4965306;28;20087;-71
2022/05/09 09:01:17;;;;;;;8.98;2.70;;;;;;;;;;4969672;28;20142;-69
2022/05/09 09:03:48;;;;;;;7.95;2.33;;;;;;;;;;4968626;28;20361;-64
2022/05/09 09:06:36;;;;;;;2.88;1.77;;;;;;;;;;4977347;28;20034;-68
2022/05/09 09:09:08;;;;;;;4.20;2.10;;;;;;;;;;4983071;28;20050;-67
2022/05/09 09:11:45;;;;;;;3.80;2.20;;;;;;;;;;4966050;28;20031;-69
2022/05/09 09:14:19;;;;;;;3.05;1.83;;;;;;;;;;4975748;28;20099;-68
2022/05/09 09:16:44;;;;;;;3.45;1.85;;;;;;;;;;4980086;28;20087;-67
2022/05/09 09:19:22;;;;;;;4.82;2.40;;;;;;;;;;4976611;28;20030;-68
2022/05/09 09:22:02;;;;;;;2.92;2.10;;;;;;;;;;4974910;28;20060;-67
2022/05/09 09:24:37;;;;;;;3.80;2.00;;;;;;;;;;4977301;28;20037;-67
2022/05/09 09:27:11;;;;;;;8.43;2.38;;;;;;;;;;4977403;28;20034;-69
2022/05/09 09:29:36;;;;;;;7.45;2.33;;;;;;;;;;4978232;28;20034;-68
2022/05/09 09:32:13;;;;;;;6.97;1.90;;;;;;;;;;4967842;28;20031;-69
2022/05/09 09:34:44;;;;;;;4.90;2.10;;;;;;;;;;4967078;28;20350;-69
2022/05/09 09:37:16;;;;;;;3.83;2.28;;;;;;;;;;4973479;28;20034;-70
2022/05/09 09:39:42;;;;;;;2.55;1.70;;;;;;;;;;4976989;28;20392;-70
2022/05/09 09:42:07;;;;;;;11.63;1.85;;;;;;;;;;4976202;28;20026;-69
2022/05/09 09:44:34;;;;;;;4.57;2.25;;;;;;;;;;4983471;28;20015;-68
2022/05/09 09:47:09;;;;;;;14.50;1.83;;;;;;;;;;4975284;28;20517;-70
2022/05/09 09:49:35;;;;;;;3.28;2.03;;;;;;;;;;4977347;28;20041;-72
2022/05/09 09:52:01;;;;;;;3.65;1.88;;;;;;;;;;4975191;28;20115;-69
2022/05/09 09:54:28;;;;;;;4.32;2.10;;;;;;;;;;4977760;28;20042;-72
2022/05/09 09:56:54;;;;;;;3.17;2.03;;;;;;;;;;4979270;28;20018;-70
2022/05/09 09:59:29;;;;;;;2.28;1.60;;;;;;;;;;4978312;28;20842;-72
2022/05/09 10:02:04;;;;;;;4.72;2.10;;;;;;;;;;4978400;28;20476;-69
2022/05/09 10:04:30;;;;;;;5.15;2.17;;;;;;;;;;4976473;28;20030;-69
2022/05/09 10:07:09;;;;;;;5.07;2.08;;;;;;;;;;4968506;28;20039;-69
2022/05/09 10:09:34;;;;;;;3.35;1.80;;;;;;;;;;4962286;28;20046;-70
2022/05/09 10:12:15;;;;;;;5.37;1.80;;;;;;;;;;4962465;28;20034;-70
2022/05/09 10:14:40;;;;;;;3.47;1.77;;;;;;;;;;4963033;28;20256;-70
2022/05/09 10:17:15;;;;;;;2.03;1.60;;;;;;;;;;4966569;28;20022;-70
2022/05/09 10:19:40;;;;;;;2.67;1.75;;;;;;;;;;4964157;28;20137;-73
2022/05/09 10:25:03;;;;;;;3.20;1.48;;;;;;;;;;4972368;28;20172;-70
2022/05/09 10:27:30;;;;;;;2.20;1.60;;;;;;;;;;4981920;28;20101;-75
2022/05/09 10:30:00;;;;;;;2.85;1.65;;;;;;;;;;4979655;28;20122;-70
2022/05/09 10:32:37;;;;;;;4.72;1.30;;;;;;;;;;4979821;28;20353;-70
2022/05/09 10:35:35;;;;;;;2.58;1.65;;;;;;;;;;4978906;28;20438;-71
2022/05/09 10:38:00;;;;;;;2.80;1.48;;;;;;;;;;5004759;28;20034;-70
2022/05/09 10:40:34;;;;;;;2.60;1.50;;;;;;;;;;4979133;28;20053;-70
2022/05/09 10:43:05;;;;;;;2.42;1.13;;;;;;;;;;4978730;28;20031;-70
2022/05/09 10:45:34;;;;;;;1.77;1.20;;;;;;;;;;4981751;28;20034;-70
2022/05/09 10:47:59;;;;;;;;;;;;;;;;;;4982318;28;20018;-70
2022/05/09 10:50:27;;;;;;;3.83;1.57;;;;;;;;;;4979568;28;20229;-72
2022/05/09 10:52:55;;;;;;;1.95;1.50;;;;;;;;;;4968130;28;20042;-70
2022/05/09 10:55:23;;;;;;;4.95;1.38;;;;;;;;;;4980804;28;20795;-70
2022/05/09 10:57:55;;;;;;;3.75;1.40;;;;;;;;;;4979766;28;20050;-69
2022/05/09 11:00:23;;;;;;;3.95;1.13;;;;;;;;;;4977226;28;20050;-73
2022/05/09 11:03:07;;;;;;;2.90;1.10;;;;;;;;;;4972566;28;20027;-74
2022/05/09 11:05:40;;;;;;;2.20;1.20;;;;;;;;;;4979533;28;20030;-69
2022/05/09 11:08:11;;;;;;;2.38;1.30;;;;;;;;;;4978482;28;20117;-69
2022/05/09 11:10:43;;;;;;;2.15;1.20;;;;;;;;;;4966424;28;20049;-69
2022/05/09 11:13:08;;;;;;;1.33;1.23;;;;;;;;;;4977467;28;20027;-70
2022/05/09 11:15:37;;;;;;;2.75;1.30;;;;;;;;;;4979149;28;20041;-73
2022/05/09 11:18:23;;;;;;;2.85;1.60;;;;;;;;;;4979814;28;20026;-69
2022/05/09 11:20:52;;;;;;;3.05;1.50;;;;;;;;;;4980154;28;20516;-70
2022/05/09 11:23:35;;;;;;;2.35;1.80;;;;;;;;;;4978735;28;20036;-70
2022/05/09 11:26:01;;;;;;;4.47;1.40;;;;;;;;;;4978942;28;20022;-74
2022/05/09 11:28:39;;;;;;;3.75;1.40;;;;;;;;;;4979332;28;20018;-71
2022/05/09 11:31:19;;;;;;;2.97;1.42;;;;;;;;;;4978570;28;20038;-72
2022/05/09 11:34:18;;;;;;;3.25;1.33;;;;;;;;;;4979786;28;20432;-70
2022/05/09 11:37:04;;;;;;;2.00;1.40;;;;;;;;;;5021403;28;20175;-70
2022/05/09 11:39:48;;;;;;;4.70;1.48;;;;;;;;;;4978991;28;20042;-71
2022/05/09 11:45:07;;;;;;;1.70;1.40;;;;;;;;;;4970888;28;20044;-70
2022/05/09 11:47:41;;;;;;;3.13;1.42;;;;;;;;;;4978006;28;20026;-70
2022/05/09 11:50:09;;;;;;;1.90;1.58;;;;;;;;;;4979370;28;20134;-71
2022/05/09 11:52:39;;;;;;;5.50;1.63;;;;;;;;;;4978912;28;20019;-69
2022/05/09 11:55:06;;;;;;;2.63;1.40;;;;;;;;;;4968213;28;20080;-70
2022/05/09 11:57:34;;;;;;;3.15;1.30;;;;;;;;;;4973808;28;20678;-74
2022/05/09 12:00:01;;;;;;;1.85;1.27;;;;;;;;;;4973016;28;20047;-76
2022/05/09 12:02:44;;;;;;;3.38;1.50;;;;;;;;;;4979742;28;20042;-70
2022/05/09 12:05:25;;;;;;;2.40;1.45;;;;;;;;;;4979816;28;20368;-70
2022/05/09 12:08:00;;;;;;;2.13;1.20;;;;;;;;;;4976690;28;20022;-73
2022/05/09 12:10:32;;;;;;;8.07;1.85;;;;;;;;;;4979233;28;20386;-71
2022/05/09 12:12:57;;;;;;;3.55;1.50;;;;;;;;;;4979558;28;20058;-71
2022/05/09 12:15:23;;;;;;;7.60;1.60;;;;;;;;;;4984614;28;20051;-74
2022/05/09 12:18:08;;;;;;;1.88;1.10;;;;;;;;;;4981411;28;20034;-72
2022/05/09 12:20:36;;;;;;;4.22;1.50;;;;;;;;;;4980150;28;20393;-72
2022/05/09 12:23:02;;;;;;;2.90;1.55;;;;;;;;;;4979127;28;20855;-74
2022/05/09 12:25:36;;;;;;;4.70;1.58;;;;;;;;;;4980354;28;20054;-73
2022/05/09 12:28:04;;;;;;;2.05;1.67;;;;;;;;;;4976165;28;20113;-71
2022/05/09 12:30:42;;;;;;;3.72;1.70;;;;;;;;;;4980886;28;20038;-69
2022/05/09 12:33:26;;;;;;;2.15;1.23;;;;;;;;;;4979810;28;20468;-69
2022/05/09 12:35:53;;;;;;;3.10;1.58;;;;;;;;;;4978587;28;20079;-71
2022/05/09 12:38:23;;;;;;;3.28;1.60;;;;;;;;;;4980637;28;20337;-70
2022/05/09 12:40:56;;;;;;;3.88;1.95;;;;;;;;;;4977740;28;20461;-70
2022/05/09 12:43:21;;;;;;;3.33;1.48;;;;;;;;;;4976854;28;20057;-72
2022/05/09 12:45:46;;;;;;;5.13;1.80;;;;;;;;;;4970315;28;20446;-71
2022/05/09 12:48:12;;;;;;;7.32;1.88;;;;;;;;;;4979007;28;20026;-71
2022/05/09 12:50:43;;;;;;;2.45;1.58;;;;;;;;;;4979109;28;20035;-72
2022/05/09 12:53:10;;;;;;;1.98;1.35;;;;;;;;;;4979115;28;20037;-70
2022/05/09 12:55:52;;;;;;;2.80;1.35;;;;;;;;;;4972132;28;20094;-70
2022/05/09 12:58:36;;;;;;;3.65;1.40;;;;;;;;;;4973045;28;20030;-72
2022/05/09 13:01:04;;;;;;;1.45;1.30;;;;;;;;;;4970680;28;20066;-70
2022/05/09 13:03:30;;;;;;;3.17;1.52;;;;;;;;;;4978223;28;20856;-71
2022/05/09 13:05:56;;;;;;;3.38;1.45;;;;;;;;;;4978966;28;20073;-71
2022/05/09 13:08:21;;;;;;;2.60;1.48;;;;;;;;;;4977562;28;20054;-71
2022/05/09 13:10:52;;;;;;;2.83;1.65;;;;;;;;;;4968017;28;20027;-70
2022/05/09 13:13:29;;;;;;;2.83;1.60;;;;;;;;;;4978059;28;20045;-73
2022/05/09 13:15:55;;;;;;;6.25;1.92;;;;;;;;;;4979515;28;20445;-72
2022/05/09 13:18:22;;;;;;;3.17;1.45;;;;;;;;;;4977675;28;20088;-70
2022/05/09 13:20:49;;;;;;;5.80;1.60;;;;;;;;;;4970844;28;20542;-73
2022/05/09 13:23:15;;;;;;;4.47;1.75;;;;;;;;;;4964474;28;20026;-70
2022/05/09 13:25:41;;;;;;;3.00;1.48;;;;;;;;;;4968661;28;20641;-72
2022/05/09 13:28:09;;;;;;;4.30;1.60;;;;;;;;;;4966424;28;20066;-70
2022/05/09 13:30:35;;;;;;;1.40;1.20;;;;;;;;;;4976225;28;20034;-70
2022/05/09 13:33:02;;;;;;;4.75;1.77;;;;;;;;;;4967550;28;20087;-73
2022/05/09 13:35:30;;;;;;;5.95;1.83;;;;;;;;;;4969024;28;20026;-70
2022/05/09 13:37:56;;;;;;;3.40;1.73;;;;;;;;;;4964945;28;20449;-70
2022/05/09 13:40:22;;;;;;;3.30;1.52;;;;;;;;;;4969595;28;20038;-71
2022/05/09 13:42:50;;;;;;;1.80;1.42;;;;;;;;;;4976849;28;20443;-70
2022/05/09 13:45:17;;;;;;;2.63;2.25;;;;;;;;;;4976409;28;20049;-71
2022/05/09 13:47:44;;;;;;;2.15;1.45;;;;;;;;;;4978588;28;20031;-72
2022/05/09 13:50:10;;;;;;;5.95;1.45;;;;;;;;;;4966462;28;20038;-69
2022/05/09 13:52:37;;;;;;;4.75;1.70;;;;;;;;;;4964663;28;20030;-69
2022/05/09 13:55:04;;;;;;;3.55;1.67;;;;;;;;;;4965070;28;20026;-71
2022/05/09 13:57:29;;;;;;;3.00;1.75;;;;;;;;;;4964512;28;20025;-72
2022/05/09 13:59:57;;;;;;;3.60;1.57;;;;;;;;;;4963392;28;20043;-68
2022/05/09 14:02:26;;;;;;;4.15;1.95;;;;;;;;;;4964787;28;20295;-69
2022/05/09 14:04:59;;;;;;;2.92;1.52;;;;;;;;;;4962482;28;20015;-68
2022/05/09 14:07:37;;;;;;;2.38;1.70;;;;;;;;;;4974734;28;20079;-69
2022/05/09 14:10:08;;;;;;;4.80;1.90;;;;;;;;;;4975382;28;20505;-68
2022/05/09 14:12:34;;;;;;;1.75;1.65;;;;;;;;;;4977336;28;20331;-69
2022/05/09 14:15:02;;;;;;;2.95;1.70;;;;;;;;;;4974978;28;20372;-69
2022/05/09 14:17:32;;;;;;;4.07;1.58;;;;;;;;;;4976369;28;20034;-71
2022/05/09 14:19:59;;;;;;;5.70;1.90;;;;;;;;;;4967641;28;20453;-70
2022/05/09 14:22:26;;;;;;;2.42;1.70;;;;;;;;;;4971441;28;20030;-68
2022/05/09 14:30:31;;;;;;;5.40;1.83;;;;;;;;;;4966480;28;20065;-69
2022/05/09 14:32:56;;;;;;;3.92;1.83;;;;;;;;;;4966908;28;20044;-68
2022/05/09 14:35:43;;;;;;;5.00;1.80;;;;;;;;;;4972437;28;20734;-72
2022/05/09 14:38:27;;;;;;;2.63;1.60;;;;;;;;;;4965121;28;20167;-72
2022/05/09 14:41:05;;;;;;;4.57;1.50;;;;;;;;;;4963087;28;20118;-69
2022/05/09 14:43:30;;;;;;;3.90;1.90;;;;;;;;;;4960185;28;20046;-69
2022/05/09 14:46:06;;;;;;;3.65;1.77;;;;;;;;;;4960541;28;20104;-68
2022/05/09 14:48:34;;;;;;;3.85;1.80;;;;;;;;;;4965261;28;20069;-70
2022/05/09 14:51:02;;;;;;;4.73;3.57;;;;;;;;;;4961587;28;20030;-68
2022/05/09 14:53:29;;;;;;;5.60;2.40;;;;;;;;;;4958945;28;20019;-69
2022/05/09 14:59:09;;;;;;;3.28;2.00;;;;;;;;;;4961357;28;20057;-71
2022/05/09 15:01:48;;;;;;;3.17;2.00;;;;;;;;;;4968563;28;20342;-71
2022/05/09 15:04:13;;;;;;;;;;;;;;;;;;4965050;28;20023;-68
2022/05/09 15:06:38;;;;;;;7.00;2.20;;;;;;;;;;4960711;28;20340;-68
2022/05/09 15:09:03;;;;;;;5.45;2.17;;;;;;;;;;4963976;28;20034;-68